Terminal Aerodrome Forecast
Issued by NWS Wilmington, OH

Home | Current Version | Previous Version | Text Only | Print | Product List | Glossary On
Versions: 1 2 3 4 5 6 7 8 9 10 11 12 13 14 15 16 17 18 19 20 21 22 23 24 25 26 27 28
000
FTUS41 KILN 211100
TAFCVG
TAF
KCVG 211134Z 2112/2218 24009KT P6SM OVC020
     FM211500 26015G25KT P6SM SCT035
     FM211600 28016G26KT P6SM SCT040
     FM212000 32017G27KT P6SM BKN050
     FM220200 32012KT P6SM OVC025
     FM221300 34007KT P6SM SCT025=

USA.gov is the U.S. government's official web portal to all federal, state and local government web resources and services.